sensor_id;sensor_type;location;lat;lon;timestamp;P1;durP1;ratioP1;P2;durP2;ratioP2
54269;SDS011;40181;51.560;13.000;2024-02-14T00:01:03;5.18;;;3.15;;
54269;SDS011;40181;51.560;13.000;2024-02-14T00:03:35;4.57;;;3.05;;
54269;SDS011;40181;51.560;13.000;2024-02-14T00:06:04;4.90;;;3.08;;
54269;SDS011;40181;51.560;13.000;2024-02-14T00:08:33;4.13;;;3.53;;
54269;SDS011;40181;51.560;13.000;2024-02-14T00:11:03;5.03;;;3.22;;
54269;SDS011;40181;51.560;13.000;2024-02-14T00:13:32;3.30;;;2.53;;
54269;SDS011;40181;51.560;13.000;2024-02-14T00:16:01;3.53;;;2.72;;
54269;SDS011;40181;51.560;13.000;2024-02-14T00:18:34;4.28;;;2.47;;
54269;SDS011;40181;51.560;13.000;2024-02-14T00:21:03;3.92;;;2.65;;
54269;SDS011;40181;51.560;13.000;2024-02-14T00:23:32;3.35;;;2.25;;
54269;SDS011;40181;51.560;13.000;2024-02-14T00:26:01;5.13;;;3.03;;
54269;SDS011;40181;51.560;13.000;2024-02-14T00:28:30;4.57;;;2.65;;
54269;SDS011;40181;51.560;13.000;2024-02-14T00:30:59;7.50;;;2.85;;
54269;SDS011;40181;51.560;13.000;2024-02-14T00:33:28;3.45;;;2.65;;
54269;SDS011;40181;51.560;13.000;2024-02-14T00:36:00;6.88;;;3.50;;
54269;SDS011;40181;51.560;13.000;2024-02-14T00:38:31;3.83;;;3.20;;
54269;SDS011;40181;51.560;13.000;2024-02-14T00:41:00;5.65;;;3.15;;
54269;SDS011;40181;51.560;13.000;2024-02-14T00:43:29;4.72;;;2.90;;
54269;SDS011;40181;51.560;13.000;2024-02-14T00:45:59;3.15;;;2.83;;
54269;SDS011;40181;51.560;13.000;2024-02-14T00:48:28;2.75;;;2.22;;
54269;SDS011;40181;51.560;13.000;2024-02-14T00:50:57;5.38;;;2.38;;
54269;SDS011;40181;51.560;13.000;2024-02-14T00:53:28;3.78;;;2.53;;
54269;SDS011;40181;51.560;13.000;2024-02-14T00:55:57;4.10;;;2.45;;
54269;SDS011;40181;51.560;13.000;2024-02-14T00:58:26;3.28;;;2.83;;
54269;SDS011;40181;51.560;13.000;2024-02-14T01:00:55;5.32;;;3.13;;
54269;SDS011;40181;51.560;13.000;2024-02-14T01:03:24;4.35;;;2.88;;
54269;SDS011;40181;51.560;13.000;2024-02-14T01:05:53;3.50;;;2.55;;
54269;SDS011;40181;51.560;13.000;2024-02-14T01:08:25;6.43;;;4.07;;
54269;SDS011;40181;51.560;13.000;2024-02-14T01:10:54;3.00;;;2.70;;
54269;SDS011;40181;51.560;13.000;2024-02-14T01:13:23;4.25;;;3.00;;
54269;SDS011;40181;51.560;13.000;2024-02-14T01:15:52;3.33;;;2.58;;
54269;SDS011;40181;51.560;13.000;2024-02-14T01:18:21;4.72;;;2.97;;
54269;SDS011;40181;51.560;13.000;2024-02-14T01:20:50;4.30;;;2.85;;
54269;SDS011;40181;51.560;13.000;2024-02-14T01:23:19;3.65;;;3.20;;
54269;SDS011;40181;51.560;13.000;2024-02-14T01:25:51;4.85;;;2.70;;
54269;SDS011;40181;51.560;13.000;2024-02-14T01:28:20;3.35;;;2.65;;
54269;SDS011;40181;51.560;13.000;2024-02-14T01:30:50;4.05;;;2.72;;
54269;SDS011;40181;51.560;13.000;2024-02-14T01:33:22;11.63;;;2.72;;
54269;SDS011;40181;51.560;13.000;2024-02-14T01:35:51;2.47;;;1.90;;
54269;SDS011;40181;51.560;13.000;2024-02-14T01:38:20;2.00;;;1.80;;
54269;SDS011;40181;51.560;13.000;2024-02-14T01:40:52;4.47;;;2.28;;
54269;SDS011;40181;51.560;13.000;2024-02-14T01:43:21;4.07;;;2.78;;
54269;SDS011;40181;51.560;13.000;2024-02-14T01:45:50;4.40;;;2.55;;
54269;SDS011;40181;51.560;13.000;2024-02-14T01:48:19;8.02;;;2.97;;
54269;SDS011;40181;51.560;13.000;2024-02-14T01:50:48;3.67;;;2.92;;
54269;SDS011;40181;51.560;13.000;2024-02-14T01:53:17;4.97;;;3.05;;
54269;SDS011;40181;51.560;13.000;2024-02-14T01:55:46;5.03;;;2.35;;
54269;SDS011;40181;51.560;13.000;2024-02-14T01:58:18;2.50;;;2.30;;
54269;SDS011;40181;51.560;13.000;2024-02-14T02:00:47;4.50;;;3.00;;
54269;SDS011;40181;51.560;13.000;2024-02-14T02:03:20;3.45;;;2.65;;
54269;SDS011;40181;51.560;13.000;2024-02-14T02:05:50;2.80;;;2.28;;
54269;SDS011;40181;51.560;13.000;2024-02-14T02:08:20;3.70;;;2.20;;
54269;SDS011;40181;51.560;13.000;2024-02-14T02:10:49;5.30;;;2.78;;
54269;SDS011;40181;51.560;13.000;2024-02-14T02:13:21;3.28;;;2.15;;
54269;SDS011;40181;51.560;13.000;2024-02-14T02:15:51;2.40;;;2.15;;
54269;SDS011;40181;51.560;13.000;2024-02-14T02:18:21;4.40;;;3.15;;
54269;SDS011;40181;51.560;13.000;2024-02-14T02:20:50;6.15;;;2.63;;
54269;SDS011;40181;51.560;13.000;2024-02-14T02:23:22;3.58;;;2.55;;
54269;SDS011;40181;51.560;13.000;2024-02-14T02:25:51;4.47;;;2.55;;
54269;SDS011;40181;51.560;13.000;2024-02-14T02:28:20;2.95;;;2.40;;
54269;SDS011;40181;51.560;13.000;2024-02-14T02:30:49;2.20;;;2.00;;
54269;SDS011;40181;51.560;13.000;2024-02-14T02:33:20;3.53;;;2.33;;
54269;SDS011;40181;51.560;13.000;2024-02-14T02:35:51;8.18;;;2.85;;
54269;SDS011;40181;51.560;13.000;2024-02-14T02:38:22;3.88;;;2.42;;
54269;SDS011;40181;51.560;13.000;2024-02-14T02:40:51;5.88;;;2.95;;
54269;SDS011;40181;51.560;13.000;2024-02-14T02:43:21;5.05;;;3.08;;
54269;SDS011;40181;51.560;13.000;2024-02-14T02:45:50;3.75;;;2.70;;
54269;SDS011;40181;51.560;13.000;2024-02-14T02:48:19;2.97;;;2.08;;
54269;SDS011;40181;51.560;13.000;2024-02-14T02:50:48;6.60;;;2.70;;
54269;SDS011;40181;51.560;13.000;2024-02-14T02:53:18;4.60;;;2.53;;
54269;SDS011;40181;51.560;13.000;2024-02-14T02:55:51;3.90;;;2.35;;
54269;SDS011;40181;51.560;13.000;2024-02-14T02:58:22;3.78;;;2.10;;
54269;SDS011;40181;51.560;13.000;2024-02-14T03:00:51;7.20;;;2.55;;
54269;SDS011;40181;51.560;13.000;2024-02-14T03:03:23;2.08;;;1.77;;
54269;SDS011;40181;51.560;13.000;2024-02-14T03:05:53;3.40;;;2.40;;
54269;SDS011;40181;51.560;13.000;2024-02-14T03:08:22;2.25;;;2.00;;
54269;SDS011;40181;51.560;13.000;2024-02-14T03:10:54;4.18;;;2.50;;
54269;SDS011;40181;51.560;13.000;2024-02-14T03:13:24;3.50;;;2.88;;
54269;SDS011;40181;51.560;13.000;2024-02-14T03:15:54;5.05;;;2.80;;
54269;SDS011;40181;51.560;13.000;2024-02-14T03:18:24;6.32;;;3.22;;
54269;SDS011;40181;51.560;13.000;2024-02-14T03:20:53;2.53;;;2.33;;
54269;SDS011;40181;51.560;13.000;2024-02-14T03:23:22;4.10;;;2.45;;
54269;SDS011;40181;51.560;13.000;2024-02-14T03:28:24;3.08;;;2.53;;
54269;SDS011;40181;51.560;13.000;2024-02-14T03:30:53;3.28;;;2.47;;
54269;SDS011;40181;51.560;13.000;2024-02-14T03:33:22;2.67;;;1.65;;
54269;SDS011;40181;51.560;13.000;2024-02-14T03:35:54;4.40;;;2.33;;
54269;SDS011;40181;51.560;13.000;2024-02-14T03:38:26;4.03;;;2.08;;
54269;SDS011;40181;51.560;13.000;2024-02-14T03:40:59;2.40;;;2.00;;
54269;SDS011;40181;51.560;13.000;2024-02-14T03:43:28;3.88;;;2.50;;
54269;SDS011;40181;51.560;13.000;2024-02-14T03:45:57;4.18;;;2.55;;
54269;SDS011;40181;51.560;13.000;2024-02-14T03:48:26;5.20;;;2.25;;
54269;SDS011;40181;51.560;13.000;2024-02-14T03:50:55;3.90;;;2.33;;
54269;SDS011;40181;51.560;13.000;2024-02-14T03:53:24;10.48;;;1.63;;
54269;SDS011;40181;51.560;13.000;2024-02-14T03:55:53;3.47;;;2.25;;
54269;SDS011;40181;51.560;13.000;2024-02-14T03:58:25;2.97;;;1.90;;
54269;SDS011;40181;51.560;13.000;2024-02-14T04:00:54;1.95;;;1.70;;
54269;SDS011;40181;51.560;13.000;2024-02-14T04:03:23;3.30;;;2.33;;
54269;SDS011;40181;51.560;13.000;2024-02-14T04:05:54;6.35;;;2.08;;
54269;SDS011;40181;51.560;13.000;2024-02-14T04:08:23;3.17;;;2.08;;
54269;SDS011;40181;51.560;13.000;2024-02-14T04:10:52;3.38;;;2.40;;
54269;SDS011;40181;51.560;13.000;2024-02-14T04:13:21;3.42;;;2.28;;
54269;SDS011;40181;51.560;13.000;2024-02-14T04:15:53;2.28;;;1.80;;
54269;SDS011;40181;51.560;13.000;2024-02-14T04:18:22;1.95;;;1.60;;
54269;SDS011;40181;51.560;13.000;2024-02-14T04:20:51;3.50;;;1.40;;
54269;SDS011;40181;51.560;13.000;2024-02-14T04:23:20;1.48;;;1.38;;
54269;SDS011;40181;51.560;13.000;2024-02-14T04:25:50;5.37;;;1.87;;
54269;SDS011;40181;51.560;13.000;2024-02-14T04:28:19;2.17;;;1.35;;
54269;SDS011;40181;51.560;13.000;2024-02-14T04:30:51;5.22;;;2.13;;
54269;SDS011;40181;51.560;13.000;2024-02-14T04:33:21;2.42;;;2.00;;
54269;SDS011;40181;51.560;13.000;2024-02-14T04:35:50;3.45;;;2.13;;
54269;SDS011;40181;51.560;13.000;2024-02-14T04:38:20;2.07;;;1.73;;
54269;SDS011;40181;51.560;13.000;2024-02-14T04:40:49;2.60;;;1.52;;
54269;SDS011;40181;51.560;13.000;2024-02-14T04:43:18;3.85;;;1.48;;
54269;SDS011;40181;51.560;13.000;2024-02-14T04:45:47;2.33;;;1.98;;
54269;SDS011;40181;51.560;13.000;2024-02-14T04:48:19;2.45;;;1.98;;
54269;SDS011;40181;51.560;13.000;2024-02-14T04:50:48;2.05;;;1.67;;
54269;SDS011;40181;51.560;13.000;2024-02-14T04:53:17;5.10;;;1.88;;
54269;SDS011;40181;51.560;13.000;2024-02-14T04:55:47;1.75;;;1.50;;
54269;SDS011;40181;51.560;13.000;2024-02-14T04:58:15;2.58;;;1.38;;
54269;SDS011;40181;51.560;13.000;2024-02-14T05:00:44;3.05;;;2.00;;
54269;SDS011;40181;51.560;13.000;2024-02-14T05:03:16;2.22;;;1.60;;
54269;SDS011;40181;51.560;13.000;2024-02-14T05:05:46;1.88;;;1.52;;
54269;SDS011;40181;51.560;13.000;2024-02-14T05:08:15;4.43;;;2.20;;
54269;SDS011;40181;51.560;13.000;2024-02-14T05:10:44;2.85;;;1.60;;
54269;SDS011;40181;51.560;13.000;2024-02-14T05:13:13;1.60;;;1.13;;
54269;SDS011;40181;51.560;13.000;2024-02-14T05:15:43;1.90;;;1.45;;
54269;SDS011;40181;51.560;13.000;2024-02-14T05:18:12;1.02;;;0.98;;
54269;SDS011;40181;51.560;13.000;2024-02-14T05:20:43;1.77;;;1.30;;
54269;SDS011;40181;51.560;13.000;2024-02-14T05:23:12;4.15;;;1.27;;
54269;SDS011;40181;51.560;13.000;2024-02-14T05:25:42;2.53;;;1.42;;
54269;SDS011;40181;51.560;13.000;2024-02-14T05:28:12;1.35;;;1.25;;
54269;SDS011;40181;51.560;13.000;2024-02-14T05:30:43;1.80;;;1.45;;
54269;SDS011;40181;51.560;13.000;2024-02-14T05:33:12;3.20;;;1.42;;
54269;SDS011;40181;51.560;13.000;2024-02-14T05:35:46;1.20;;;1.10;;
54269;SDS011;40181;51.560;13.000;2024-02-14T05:38:15;1.00;;;0.90;;
54269;SDS011;40181;51.560;13.000;2024-02-14T05:40:45;1.33;;;1.20;;
54269;SDS011;40181;51.560;13.000;2024-02-14T05:43:14;2.30;;;1.50;;
54269;SDS011;40181;51.560;13.000;2024-02-14T05:45:44;3.55;;;1.67;;
54269;SDS011;40181;51.560;13.000;2024-02-14T05:48:13;3.83;;;1.92;;
54269;SDS011;40181;51.560;13.000;2024-02-14T05:50:42;2.15;;;1.45;;
54269;SDS011;40181;51.560;13.000;2024-02-14T05:53:13;3.83;;;1.67;;
54269;SDS011;40181;51.560;13.000;2024-02-14T05:55:43;1.30;;;1.10;;
54269;SDS011;40181;51.560;13.000;2024-02-14T05:58:12;1.90;;;1.30;;
54269;SDS011;40181;51.560;13.000;2024-02-14T06:00:41;1.00;;;0.90;;
54269;SDS011;40181;51.560;13.000;2024-02-14T06:03:10;1.60;;;1.10;;
54269;SDS011;40181;51.560;13.000;2024-02-14T06:05:39;1.85;;;1.45;;
54269;SDS011;40181;51.560;13.000;2024-02-14T06:08:11;2.30;;;1.40;;
54269;SDS011;40181;51.560;13.000;2024-02-14T06:10:40;1.25;;;1.15;;
54269;SDS011;40181;51.560;13.000;2024-02-14T06:13:09;2.60;;;1.23;;
54269;SDS011;40181;51.560;13.000;2024-02-14T06:15:38;1.20;;;1.08;;
54269;SDS011;40181;51.560;13.000;2024-02-14T06:18:07;1.60;;;1.27;;
54269;SDS011;40181;51.560;13.000;2024-02-14T06:20:36;2.90;;;1.42;;
54269;SDS011;40181;51.560;13.000;2024-02-14T06:23:05;3.00;;;1.80;;
54269;SDS011;40181;51.560;13.000;2024-02-14T06:25:37;1.77;;;1.23;;
54269;SDS011;40181;51.560;13.000;2024-02-14T06:28:06;1.67;;;1.30;;
54269;SDS011;40181;51.560;13.000;2024-02-14T06:30:35;1.48;;;1.27;;
54269;SDS011;40181;51.560;13.000;2024-02-14T06:33:04;3.03;;;1.45;;
54269;SDS011;40181;51.560;13.000;2024-02-14T06:35:33;1.42;;;1.10;;
54269;SDS011;40181;51.560;13.000;2024-02-14T06:38:03;2.05;;;1.40;;
54269;SDS011;40181;51.560;13.000;2024-02-14T06:40:32;9.18;;;1.55;;
54269;SDS011;40181;51.560;13.000;2024-02-14T06:43:04;2.85;;;1.58;;
54269;SDS011;40181;51.560;13.000;2024-02-14T06:45:33;1.58;;;1.30;;
54269;SDS011;40181;51.560;13.000;2024-02-14T06:48:02;1.98;;;1.40;;
54269;SDS011;40181;51.560;13.000;2024-02-14T06:50:33;3.67;;;1.98;;
54269;SDS011;40181;51.560;13.000;2024-02-14T06:53:02;1.80;;;1.35;;
54269;SDS011;40181;51.560;13.000;2024-02-14T06:55:31;1.20;;;1.10;;
54269;SDS011;40181;51.560;13.000;2024-02-14T06:58:01;1.52;;;1.35;;
54269;SDS011;40181;51.560;13.000;2024-02-14T07:00:32;6.90;;;2.08;;
54269;SDS011;40181;51.560;13.000;2024-02-14T07:03:01;1.67;;;1.17;;
54269;SDS011;40181;51.560;13.000;2024-02-14T07:05:31;2.88;;;1.40;;
54269;SDS011;40181;51.560;13.000;2024-02-14T07:08:00;3.90;;;1.63;;
54269;SDS011;40181;51.560;13.000;2024-02-14T07:10:30;1.42;;;1.05;;
54269;SDS011;40181;51.560;13.000;2024-02-14T07:12:59;2.13;;;1.05;;
54269;SDS011;40181;51.560;13.000;2024-02-14T07:15:30;2.63;;;1.20;;
54269;SDS011;40181;51.560;13.000;2024-02-14T07:17:59;7.38;;;1.73;;
54269;SDS011;40181;51.560;13.000;2024-02-14T07:20:28;2.20;;;1.23;;
54269;SDS011;40181;51.560;13.000;2024-02-14T07:22:57;1.55;;;1.17;;
54269;SDS011;40181;51.560;13.000;2024-02-14T07:25:26;2.78;;;1.45;;
54269;SDS011;40181;51.560;13.000;2024-02-14T07:27:56;3.22;;;1.48;;
54269;SDS011;40181;51.560;13.000;2024-02-14T07:30:22;3.13;;;1.60;;
54269;SDS011;40181;51.560;13.000;2024-02-14T07:32:54;1.27;;;1.00;;
54269;SDS011;40181;51.560;13.000;2024-02-14T07:35:23;1.45;;;1.35;;
54269;SDS011;40181;51.560;13.000;2024-02-14T07:37:52;2.70;;;1.58;;
54269;SDS011;40181;51.560;13.000;2024-02-14T07:40:21;1.00;;;0.95;;
54269;SDS011;40181;51.560;13.000;2024-02-14T07:42:52;1.95;;;1.23;;
54269;SDS011;40181;51.560;13.000;2024-02-14T07:45:21;1.85;;;0.93;;
54269;SDS011;40181;51.560;13.000;2024-02-14T07:47:50;1.60;;;1.10;;
54269;SDS011;40181;51.560;13.000;2024-02-14T07:50:22;4.25;;;1.90;;
54269;SDS011;40181;51.560;13.000;2024-02-14T07:52:53;2.20;;;1.50;;
54269;SDS011;40181;51.560;13.000;2024-02-14T07:55:22;4.90;;;1.50;;
54269;SDS011;40181;51.560;13.000;2024-02-14T07:57:51;5.03;;;1.30;;
54269;SDS011;40181;51.560;13.000;2024-02-14T08:00:20;1.30;;;0.90;;
54269;SDS011;40181;51.560;13.000;2024-02-14T08:02:50;1.07;;;1.07;;
54269;SDS011;40181;51.560;13.000;2024-02-14T08:05:22;1.77;;;1.20;;
54269;SDS011;40181;51.560;13.000;2024-02-14T08:07:50;2.50;;;1.13;;
54269;SDS011;40181;51.560;13.000;2024-02-14T08:10:19;2.78;;;1.45;;
54269;SDS011;40181;51.560;13.000;2024-02-14T08:12:48;2.05;;;1.35;;
54269;SDS011;40181;51.560;13.000;2024-02-14T08:15:17;2.00;;;1.45;;
54269;SDS011;40181;51.560;13.000;2024-02-14T08:17:47;1.10;;;0.95;;
54269;SDS011;40181;51.560;13.000;2024-02-14T08:20:21;1.48;;;1.35;;
54269;SDS011;40181;51.560;13.000;2024-02-14T08:22:51;2.00;;;1.10;;
54269;SDS011;40181;51.560;13.000;2024-02-14T08:25:20;2.20;;;1.42;;
54269;SDS011;40181;51.560;13.000;2024-02-14T08:27:49;1.45;;;1.35;;
54269;SDS011;40181;51.560;13.000;2024-02-14T08:30:18;3.47;;;1.48;;
54269;SDS011;40181;51.560;13.000;2024-02-14T08:32:47;2.30;;;1.13;;
54269;SDS011;40181;51.560;13.000;2024-02-14T08:35:16;2.45;;;1.55;;
54269;SDS011;40181;51.560;13.000;2024-02-14T08:37:49;1.95;;;1.42;;
54269;SDS011;40181;51.560;13.000;2024-02-14T08:40:18;1.67;;;1.23;;
54269;SDS011;40181;51.560;13.000;2024-02-14T08:42:47;3.72;;;1.38;;
54269;SDS011;40181;51.560;13.000;2024-02-14T08:45:16;2.35;;;1.38;;
54269;SDS011;40181;51.560;13.000;2024-02-14T08:47:45;2.50;;;1.63;;
54269;SDS011;40181;51.560;13.000;2024-02-14T08:50:14;6.82;;;1.85;;
54269;SDS011;40181;51.560;13.000;2024-02-14T08:52:43;2.72;;;1.60;;
54269;SDS011;40181;51.560;13.000;2024-02-14T08:55:15;5.57;;;1.42;;
54269;SDS011;40181;51.560;13.000;2024-02-14T08:57:46;1.63;;;1.10;;
54269;SDS011;40181;51.560;13.000;2024-02-14T09:00:16;1.92;;;1.17;;
54269;SDS011;40181;51.560;13.000;2024-02-14T09:02:47;3.30;;;1.30;;
54269;SDS011;40181;51.560;13.000;2024-02-14T09:05:16;3.90;;;2.00;;
54269;SDS011;40181;51.560;13.000;2024-02-14T09:10:18;1.65;;;1.27;;
54269;SDS011;40181;51.560;13.000;2024-02-14T09:12:48;1.65;;;1.33;;
54269;SDS011;40181;51.560;13.000;2024-02-14T09:15:18;2.35;;;1.30;;
54269;SDS011;40181;51.560;13.000;2024-02-14T09:17:47;4.50;;;1.42;;
54269;SDS011;40181;51.560;13.000;2024-02-14T09:20:17;1.50;;;1.10;;
54269;SDS011;40181;51.560;13.000;2024-02-14T09:22:46;1.67;;;1.25;;
54269;SDS011;40181;51.560;13.000;2024-02-14T09:25:15;1.48;;;1.30;;
54269;SDS011;40181;51.560;13.000;2024-02-14T09:27:48;3.28;;;1.60;;
54269;SDS011;40181;51.560;13.000;2024-02-14T09:30:18;2.37;;;1.10;;
54269;SDS011;40181;51.560;13.000;2024-02-14T09:32:47;1.50;;;0.98;;
54269;SDS011;40181;51.560;13.000;2024-02-14T09:35:16;4.55;;;2.03;;
54269;SDS011;40181;51.560;13.000;2024-02-14T09:37:45;1.48;;;1.15;;
54269;SDS011;40181;51.560;13.000;2024-02-14T09:40:14;2.63;;;1.80;;
54269;SDS011;40181;51.560;13.000;2024-02-14T09:42:48;1.77;;;1.23;;
54269;SDS011;40181;51.560;13.000;2024-02-14T09:45:23;1.52;;;1.08;;
54269;SDS011;40181;51.560;13.000;2024-02-14T09:47:54;1.55;;;1.05;;
54269;SDS011;40181;51.560;13.000;2024-02-14T09:50:23;4.70;;;1.58;;
54269;SDS011;40181;51.560;13.000;2024-02-14T09:52:55;2.20;;;1.20;;
54269;SDS011;40181;51.560;13.000;2024-02-14T09:55:28;4.78;;;2.00;;
54269;SDS011;40181;51.560;13.000;2024-02-14T09:57:58;1.50;;;1.20;;
54269;SDS011;40181;51.560;13.000;2024-02-14T10:00:31;2.97;;;1.63;;
54269;SDS011;40181;51.560;13.000;2024-02-14T10:03:01;2.28;;;1.45;;
54269;SDS011;40181;51.560;13.000;2024-02-14T10:05:30;2.90;;;1.40;;
54269;SDS011;40181;51.560;13.000;2024-02-14T10:07:59;2.55;;;1.25;;
54269;SDS011;40181;51.560;13.000;2024-02-14T10:10:34;2.13;;;1.35;;
54269;SDS011;40181;51.560;13.000;2024-02-14T10:13:06;2.17;;;1.35;;
54269;SDS011;40181;51.560;13.000;2024-02-14T10:15:35;1.23;;;1.00;;
54269;SDS011;40181;51.560;13.000;2024-02-14T10:18:05;3.28;;;1.88;;
54269;SDS011;40181;51.560;13.000;2024-02-14T10:20:35;2.30;;;1.53;;
54269;SDS011;40181;51.560;13.000;2024-02-14T10:23:08;2.00;;;1.10;;
54269;SDS011;40181;51.560;13.000;2024-02-14T10:25:42;4.05;;;2.05;;
54269;SDS011;40181;51.560;13.000;2024-02-14T10:28:11;2.30;;;1.50;;
54269;SDS011;40181;51.560;13.000;2024-02-14T10:30:44;1.80;;;1.23;;
54269;SDS011;40181;51.560;13.000;2024-02-14T10:33:14;2.55;;;1.40;;
54269;SDS011;40181;51.560;13.000;2024-02-14T10:35:44;1.75;;;1.10;;
54269;SDS011;40181;51.560;13.000;2024-02-14T10:38:14;6.25;;;2.15;;
54269;SDS011;40181;51.560;13.000;2024-02-14T10:40:48;3.30;;;1.40;;
54269;SDS011;40181;51.560;13.000;2024-02-14T10:43:19;2.58;;;1.27;;
54269;SDS011;40181;51.560;13.000;2024-02-14T10:45:49;2.03;;;1.57;;
54269;SDS011;40181;51.560;13.000;2024-02-14T10:48:21;3.25;;;1.52;;
54269;SDS011;40181;51.560;13.000;2024-02-14T10:50:53;2.28;;;1.58;;
54269;SDS011;40181;51.560;13.000;2024-02-14T10:53:23;1.42;;;1.15;;
54269;SDS011;40181;51.560;13.000;2024-02-14T10:56:00;1.42;;;0.93;;
54269;SDS011;40181;51.560;13.000;2024-02-14T10:58:30;2.45;;;1.35;;
54269;SDS011;40181;51.560;13.000;2024-02-14T11:01:02;4.50;;;1.95;;
54269;SDS011;40181;51.560;13.000;2024-02-14T11:03:33;2.42;;;1.27;;
54269;SDS011;40181;51.560;13.000;2024-02-14T11:06:02;3.42;;;1.25;;
54269;SDS011;40181;51.560;13.000;2024-02-14T11:08:32;1.50;;;1.25;;
54269;SDS011;40181;51.560;13.000;2024-02-14T11:11:05;2.22;;;1.52;;
54269;SDS011;40181;51.560;13.000;2024-02-14T11:13:35;1.20;;;1.10;;
54269;SDS011;40181;51.560;13.000;2024-02-14T11:16:05;2.25;;;1.25;;
54269;SDS011;40181;51.560;13.000;2024-02-14T11:18:39;2.83;;;1.67;;
54269;SDS011;40181;51.560;13.000;2024-02-14T11:21:15;3.92;;;1.38;;
54269;SDS011;40181;51.560;13.000;2024-02-14T11:23:52;1.70;;;1.20;;
54269;SDS011;40181;51.560;13.000;2024-02-14T11:26:24;2.22;;;1.48;;
54269;SDS011;40181;51.560;13.000;2024-02-14T11:28:59;1.83;;;1.15;;
54269;SDS011;40181;51.560;13.000;2024-02-14T11:31:32;3.13;;;1.50;;
54269;SDS011;40181;51.560;13.000;2024-02-14T11:34:03;7.50;;;1.63;;
54269;SDS011;40181;51.560;13.000;2024-02-14T11:36:34;1.27;;;1.17;;
54269;SDS011;40181;51.560;13.000;2024-02-14T11:39:03;3.13;;;1.47;;
54269;SDS011;40181;51.560;13.000;2024-02-14T11:41:35;2.80;;;1.48;;
54269;SDS011;40181;51.560;13.000;2024-02-14T11:44:07;1.48;;;1.20;;
54269;SDS011;40181;51.560;13.000;2024-02-14T11:46:37;2.65;;;1.65;;
54269;SDS011;40181;51.560;13.000;2024-02-14T11:49:07;1.90;;;1.40;;
54269;SDS011;40181;51.560;13.000;2024-02-14T11:51:36;1.80;;;1.38;;
54269;SDS011;40181;51.560;13.000;2024-02-14T11:54:06;4.47;;;2.45;;
54269;SDS011;40181;51.560;13.000;2024-02-14T11:56:38;4.38;;;1.15;;
54269;SDS011;40181;51.560;13.000;2024-02-14T11:59:08;4.20;;;1.65;;
54269;SDS011;40181;51.560;13.000;2024-02-14T12:01:38;1.98;;;1.45;;
54269;SDS011;40181;51.560;13.000;2024-02-14T12:04:07;2.05;;;1.15;;
54269;SDS011;40181;51.560;13.000;2024-02-14T12:09:08;5.53;;;1.80;;
54269;SDS011;40181;51.560;13.000;2024-02-14T12:11:41;3.05;;;1.95;;
54269;SDS011;40181;51.560;13.000;2024-02-14T12:14:11;3.50;;;1.75;;
54269;SDS011;40181;51.560;13.000;2024-02-14T12:16:40;4.10;;;1.88;;
54269;SDS011;40181;51.560;13.000;2024-02-14T12:19:09;3.35;;;1.48;;
54269;SDS011;40181;51.560;13.000;2024-02-14T12:21:44;2.20;;;1.45;;
54269;SDS011;40181;51.560;13.000;2024-02-14T12:24:14;3.45;;;1.88;;
54269;SDS011;40181;51.560;13.000;2024-02-14T12:26:45;1.30;;;1.20;;
54269;SDS011;40181;51.560;13.000;2024-02-14T12:29:17;1.58;;;0.85;;
54269;SDS011;40181;51.560;13.000;2024-02-14T12:31:47;2.45;;;1.40;;
54269;SDS011;40181;51.560;13.000;2024-02-14T12:34:16;1.83;;;1.30;;
54269;SDS011;40181;51.560;13.000;2024-02-14T12:36:45;2.30;;;1.57;;
54269;SDS011;40181;51.560;13.000;2024-02-14T12:39:14;2.03;;;1.52;;
54269;SDS011;40181;51.560;13.000;2024-02-14T12:41:48;3.72;;;2.17;;
54269;SDS011;40181;51.560;13.000;2024-02-14T12:44:17;1.80;;;1.50;;
54269;SDS011;40181;51.560;13.000;2024-02-14T12:46:46;2.80;;;1.65;;
54269;SDS011;40181;51.560;13.000;2024-02-14T12:49:15;1.95;;;1.30;;
54269;SDS011;40181;51.560;13.000;2024-02-14T12:51:44;4.68;;;1.60;;
54269;SDS011;40181;51.560;13.000;2024-02-14T12:54:13;2.53;;;1.52;;
54269;SDS011;40181;51.560;13.000;2024-02-14T12:56:42;1.45;;;1.20;;
54269;SDS011;40181;51.560;13.000;2024-02-14T13:01:47;4.93;;;1.55;;
54269;SDS011;40181;51.560;13.000;2024-02-14T13:04:16;5.53;;;1.80;;
54269;SDS011;40181;51.560;13.000;2024-02-14T13:06:46;2.70;;;1.55;;
54269;SDS011;40181;51.560;13.000;2024-02-14T13:09:15;1.73;;;1.05;;
54269;SDS011;40181;51.560;13.000;2024-02-14T13:11:44;3.30;;;1.42;;
54269;SDS011;40181;51.560;13.000;2024-02-14T13:14:13;2.25;;;1.05;;
54269;SDS011;40181;51.560;13.000;2024-02-14T13:16:45;2.20;;;1.10;;
54269;SDS011;40181;51.560;13.000;2024-02-14T13:19:14;1.67;;;1.05;;
54269;SDS011;40181;51.560;13.000;2024-02-14T13:21:43;2.72;;;1.30;;
54269;SDS011;40181;51.560;13.000;2024-02-14T13:24:13;2.53;;;1.50;;
54269;SDS011;40181;51.560;13.000;2024-02-14T13:26:42;0.75;;;0.70;;
54269;SDS011;40181;51.560;13.000;2024-02-14T13:29:11;1.42;;;1.20;;
54269;SDS011;40181;51.560;13.000;2024-02-14T13:31:44;3.08;;;1.27;;
54269;SDS011;40181;51.560;13.000;2024-02-14T13:34:13;2.92;;;1.67;;
54269;SDS011;40181;51.560;13.000;2024-02-14T13:36:44;2.72;;;1.42;;
54269;SDS011;40181;51.560;13.000;2024-02-14T13:39:13;3.75;;;1.02;;
54269;SDS011;40181;51.560;13.000;2024-02-14T13:41:43;1.95;;;1.23;;
54269;SDS011;40181;51.560;13.000;2024-02-14T13:44:12;1.88;;;0.90;;
54269;SDS011;40181;51.560;13.000;2024-02-14T13:46:43;1.95;;;1.17;;
54269;SDS011;40181;51.560;13.000;2024-02-14T13:49:15;1.20;;;0.95;;
54269;SDS011;40181;51.560;13.000;2024-02-14T13:51:46;1.67;;;1.20;;
54269;SDS011;40181;51.560;13.000;2024-02-14T13:54:16;1.88;;;1.15;;
54269;SDS011;40181;51.560;13.000;2024-02-14T13:56:45;1.50;;;1.17;;
54269;SDS011;40181;51.560;13.000;2024-02-14T13:59:15;1.90;;;1.42;;
54269;SDS011;40181;51.560;13.000;2024-02-14T14:01:47;2.65;;;1.48;;
54269;SDS011;40181;51.560;13.000;2024-02-14T14:04:16;2.28;;;1.02;;
54269;SDS011;40181;51.560;13.000;2024-02-14T14:06:45;0.98;;;0.63;;
54269;SDS011;40181;51.560;13.000;2024-02-14T14:09:15;1.10;;;0.85;;
54269;SDS011;40181;51.560;13.000;2024-02-14T14:11:44;3.47;;;1.30;;
54269;SDS011;40181;51.560;13.000;2024-02-14T14:14:14;5.85;;;1.40;;
54269;SDS011;40181;51.560;13.000;2024-02-14T14:16:47;1.60;;;1.00;;
54269;SDS011;40181;51.560;13.000;2024-02-14T14:19:16;0.55;;;0.55;;
54269;SDS011;40181;51.560;13.000;2024-02-14T14:21:45;2.55;;;1.00;;
54269;SDS011;40181;51.560;13.000;2024-02-14T14:24:14;1.40;;;0.85;;
54269;SDS011;40181;51.560;13.000;2024-02-14T14:26:43;2.90;;;1.10;;
54269;SDS011;40181;51.560;13.000;2024-02-14T14:29:13;1.02;;;0.93;;
54269;SDS011;40181;51.560;13.000;2024-02-14T14:31:42;2.10;;;0.95;;
54269;SDS011;40181;51.560;13.000;2024-02-14T14:34:14;3.22;;;1.23;;
54269;SDS011;40181;51.560;13.000;2024-02-14T14:36:44;1.90;;;1.13;;
54269;SDS011;40181;51.560;13.000;2024-02-14T14:39:13;2.17;;;1.02;;
54269;SDS011;40181;51.560;13.000;2024-02-14T14:41:44;0.75;;;0.75;;
54269;SDS011;40181;51.560;13.000;2024-02-14T14:44:13;1.92;;;1.25;;
54269;SDS011;40181;51.560;13.000;2024-02-14T14:46:43;2.30;;;0.98;;
54269;SDS011;40181;51.560;13.000;2024-02-14T14:49:14;1.33;;;1.05;;
54269;SDS011;40181;51.560;13.000;2024-02-14T14:51:44;0.68;;;0.68;;
54269;SDS011;40181;51.560;13.000;2024-02-14T14:54:13;1.17;;;0.77;;
54269;SDS011;40181;51.560;13.000;2024-02-14T14:56:42;1.77;;;0.90;;
54269;SDS011;40181;51.560;13.000;2024-02-14T14:59:11;1.50;;;0.88;;